Nebraska City, NE

12:04 PM CDT on May 28, 2015 (GMT -0500)
East Union | | Change Station
CLOSE
Current Station
Personal Weather Station
Location: Union, NE
Elevation: 1076 ft
Nearby Weather Stations

Elev 1076 ft 40.81 °N, 95.87 °W | Updated 4 minutes ago

Rain
Rain
71.6 °F
Feels Like 72 °F
N
9.8
Wind Variable Wind from South
Gusts 12.1 mph

Today
High -- | Low -- °F
--% Chance of Precip.
Yesterday
High -- | Low -- °F
Precip. -- in
5:56 AM 8:45 PM
Waxing Gibbous, 77% visible
Pressure 30.05 in
Visibility 10.0 miles
Clouds Mostly Cloudy 1400 ft
Mostly Cloudy 1800 ft
Overcast 8500 ft
Heat Index 72 °F
Dew Point 65 °F
Humidity 80%
Rainfall 0.00 in
Snow Depth Not available.
UV 3 out of 12
Pollen 5.30 out of 12
Air Quality Not available.
Flu Activity No Activity
METAR KAFK 281655Z AUTO 16009KT 10SM BKN014 BKN018 OVC085 21/16 A3005 RMK AO2 T02080163

More Conditions Fewer Conditions

Pressure 30.05 in
Visibility 10.0 miles
Clouds Mostly Cloudy 1400 ft
Mostly Cloudy 1800 ft
Overcast 8500 ft
Heat Index 72 °F
Dew Point 65 °F
Humidity 80%
Rainfall 0.00 in
Snow Depth Not available.
UV 3 out of 12
Pollen 5.30 out of 12
Air Quality Not available.
Flu Activity No Activity
METAR KAFK 281655Z AUTO 16009KT 10SM BKN014 BKN018 OVC085 21/16 A3005 RMK AO2 T02080163

More Conditions Fewer Conditions

10-Day Weather Forecast

Almanac

Astronomy

May. 28, 2015 Rise Set
Actual Time
Civil Twilight
Nautical Twilight
Astronomical Twilight
Moon
Length of Visible Light
Length of Day
Tomorrow will be .
, % of the Moon is Illuminated

Today's Extremes

State Highs State Lows

Community

WunderPhotos

Upload Photos

1,825,004 photos uploaded!

WunderBlogs® & News

Nearby

Air Quality

  Air Quality AQ Index Pollutant
Not available.

Snow Depth

Station Depth Elevation

Earthquake Activity

City Distance Mag. Time & Date
Minimum magnitude displayed is 2.5.

Coastal Water Temperatures

Place Temperature

Stations

Nearby Weather Stations

Station Location Temp. Windchill Dew Point Humidity Wind Precip. Elev Updated Type